createdAt,value
2022-08-07T00:00:03.527Z,46.37
2022-08-07T00:02:44.620Z,46.31
2022-08-07T00:05:14.400Z,46.35
2022-08-07T00:07:43.457Z,46.25
2022-08-07T00:10:26.024Z,46.23
2022-08-07T00:13:00.306Z,46.27
2022-08-07T00:15:37.755Z,46.59
2022-08-07T00:18:19.196Z,46.44
2022-08-07T00:20:50.685Z,46.19
2022-08-07T00:23:21.061Z,46.54
2022-08-07T00:25:52.105Z,44.89
2022-08-07T00:28:34.381Z,46.48
2022-08-07T00:31:12.621Z,46.93
2022-08-07T00:33:47.567Z,47.10
2022-08-07T00:36:17.114Z,46.48
2022-08-07T00:38:45.928Z,46.43
2022-08-07T00:41:15.297Z,46.36
2022-08-07T00:44:00.786Z,46.50
2022-08-07T00:46:33.237Z,46.65
2022-08-07T00:49:03.749Z,46.69
2022-08-07T00:51:57.370Z,46.20
2022-08-07T00:54:22.598Z,46.41
2022-08-07T00:56:53.224Z,46.75
2022-08-07T00:59:35.825Z,46.56
2022-08-07T01:02:14.245Z,46.08
2022-08-07T01:04:58.370Z,46.54
2022-08-07T01:07:31.144Z,46.55
2022-08-07T01:10:06.946Z,46.37
2022-08-07T01:12:53.516Z,46.71
2022-08-07T01:16:00.619Z,46.49
2022-08-07T01:18:17.849Z,46.61
2022-08-07T01:20:59.371Z,46.71
2022-08-07T01:23:38.504Z,46.41
2022-08-07T01:26:12.089Z,46.33
2022-08-07T01:28:48.177Z,46.68
2022-08-07T01:31:41.742Z,46.75
2022-08-07T01:34:18.897Z,46.36
2022-08-07T01:36:52.582Z,46.04
2022-08-07T01:39:41.445Z,45.88
2022-08-07T01:42:40.220Z,45.94
2022-08-07T01:45:37.278Z,45.73
2022-08-07T01:48:20.741Z,45.55
2022-08-07T01:51:24.629Z,45.47
2022-08-07T01:54:12.559Z,45.05
2022-08-07T01:56:53.541Z,45.51
2022-08-07T01:59:31.064Z,45.72
2022-08-07T02:02:07.340Z,45.74
2022-08-07T02:04:56.440Z,46.14
2022-08-07T02:07:50.477Z,46.54
2022-08-07T02:10:29.328Z,46.68
2022-08-07T02:13:01.962Z,46.39
2022-08-07T02:15:40.655Z,46.60
2022-08-07T02:18:13.739Z,46.81
2022-08-07T02:20:48.659Z,46.83
2022-08-07T02:23:24.767Z,46.67
2022-08-07T02:26:31.973Z,47.56
2022-08-07T02:28:46.066Z,46.83
2022-08-07T02:31:28.670Z,46.85
2022-08-07T02:34:03.885Z,46.88
2022-08-07T02:36:41.286Z,47.45
2022-08-07T02:39:43.016Z,46.98
2022-08-07T02:42:10.313Z,47.08
2022-08-07T02:44:50.030Z,47.33
2022-08-07T02:47:23.982Z,47.11
2022-08-07T02:50:06.403Z,47.17
2022-08-07T02:52:40.652Z,47.14
2022-08-07T02:55:28.321Z,47.04
2022-08-07T02:58:16.005Z,46.73
2022-08-07T03:00:49.298Z,46.84
2022-08-07T03:03:22.893Z,46.52
2022-08-07T03:05:57.741Z,46.68
2022-08-07T03:08:29.546Z,47.23
2022-08-07T03:11:02.880Z,47.06
2022-08-07T03:13:39.026Z,46.82
2022-08-07T03:16:12.903Z,47.10
2022-08-07T03:18:44.094Z,46.68
2022-08-07T03:21:14.603Z,47.23
2022-08-07T03:24:20.625Z,47.02
2022-08-07T03:26:42.930Z,47.05
2022-08-07T03:29:23.525Z,46.71
2022-08-07T03:31:59.273Z,46.59
2022-08-07T03:34:28.869Z,45.79
2022-08-07T03:37:11.957Z,46.73
2022-08-07T03:40:13.407Z,46.65
2022-08-07T03:42:39.954Z,46.46
2022-08-07T03:45:11.332Z,46.74
2022-08-07T03:47:48.123Z,46.97
2022-08-07T03:50:25.272Z,46.51
2022-08-07T03:53:00.275Z,47.07
2022-08-07T03:55:57.302Z,47.62
2022-08-07T03:59:06.751Z,47.65
2022-08-07T04:01:13.966Z,47.52
2022-08-07T04:03:49.910Z,47.41
2022-08-07T04:06:37.831Z,47.18
2022-08-07T04:09:15.838Z,46.47
2022-08-07T04:12:23.693Z,46.55
2022-08-07T04:14:43.941Z,46.72
2022-08-07T04:17:20.979Z,46.38
2022-08-07T04:19:57.545Z,46.67
2022-08-07T04:22:30.035Z,46.63
2022-08-07T04:25:03.680Z,46.12
2022-08-07T04:27:44.312Z,46.18
2022-08-07T04:30:35.966Z,46.29
2022-08-07T04:33:18.100Z,45.81
2022-08-07T04:35:54.184Z,45.85
2022-08-07T04:38:29.647Z,44.83
2022-08-07T04:41:00.791Z,44.72
2022-08-07T04:44:10.504Z,43.86
2022-08-07T04:47:04.812Z,43.47
2022-08-07T04:49:57.468Z,43.07
2022-08-07T04:52:50.943Z,42.55
2022-08-07T04:58:12.542Z,42.98
2022-08-07T04:58:49.804Z,42.63
2022-08-07T05:01:30.242Z,42.72
2022-08-07T05:04:15.645Z,43.07
2022-08-07T05:06:57.618Z,42.78
2022-08-07T05:09:45.293Z,42.31
2022-08-07T05:12:27.102Z,42.49
2022-08-07T05:15:21.727Z,42.19
2022-08-07T05:18:09.305Z,41.46
2022-08-07T05:20:45.039Z,41.84
2022-08-07T05:23:19.860Z,42.13
2022-08-07T05:26:11.737Z,41.93
2022-08-07T05:28:48.643Z,42.61
2022-08-07T05:31:25.387Z,41.99
2022-08-07T05:34:11.008Z,41.92
2022-08-07T05:36:48.983Z,41.53
2022-08-07T05:40:05.660Z,41.15
2022-08-07T05:42:37.047Z,40.68
2022-08-07T05:45:25.711Z,40.45
2022-08-07T05:48:07.492Z,40.01
2022-08-07T05:50:43.307Z,39.53
2022-08-07T05:54:09.509Z,38.37
2022-08-07T05:56:07.073Z,37.62
2022-08-07T05:58:52.361Z,36.24
2022-08-07T06:01:26.480Z,36.86
2022-08-07T06:04:06.652Z,36.80
2022-08-07T06:06:46.410Z,37.31
2022-08-07T06:09:19.296Z,37.74
2022-08-07T06:11:51.309Z,38.37
2022-08-07T06:14:28.728Z,38.71
2022-08-07T06:17:07.090Z,38.79
2022-08-07T06:19:52.108Z,38.22
2022-08-07T06:22:38.821Z,39.46
2022-08-07T06:25:26.699Z,40.18
2022-08-07T06:28:05.487Z,41.02
2022-08-07T06:30:42.708Z,41.05
2022-08-07T06:33:20.124Z,40.61
2022-08-07T06:36:12.839Z,41.12
2022-08-07T06:38:58.816Z,41.10
2022-08-07T06:42:02.268Z,41.57
2022-08-07T06:45:13.321Z,41.49
2022-08-07T06:47:58.452Z,41.43
2022-08-07T06:50:37.978Z,41.31
2022-08-07T06:53:49.218Z,41.30
2022-08-07T06:56:15.312Z,42.01
2022-08-07T07:00:14.842Z,41.73
2022-08-07T07:01:48.818Z,41.39
2022-08-07T07:04:28.515Z,41.51
2022-08-07T07:07:10.465Z,40.14
2022-08-07T07:09:53.642Z,39.01
2022-08-07T07:12:37.512Z,39.16
2022-08-07T07:15:26.089Z,38.33
2022-08-07T07:18:02.579Z,37.42
2022-08-07T07:20:45.678Z,36.25
2022-08-07T07:24:08.378Z,35.88
2022-08-07T07:26:35.091Z,36.07
2022-08-07T07:29:39.031Z,36.08
2022-08-07T07:32:03.303Z,35.12
2022-08-07T07:34:34.673Z,36.50
2022-08-07T07:37:21.781Z,37.40
2022-08-07T07:40:14.779Z,36.46
2022-08-07T07:42:54.352Z,34.77
2022-08-07T07:46:36.913Z,34.76
2022-08-07T07:48:35.162Z,35.64
2022-08-07T07:51:08.602Z,34.60
2022-08-07T07:53:51.429Z,32.37
2022-08-07T07:56:35.441Z,31.25
2022-08-07T07:59:06.714Z,30.50
2022-08-07T08:02:02.171Z,30.96
2022-08-07T08:04:30.343Z,29.89
2022-08-07T08:07:02.871Z,30.64
2022-08-07T08:09:51.834Z,30.26
2022-08-07T08:12:52.657Z,29.58
2022-08-07T08:15:25.278Z,28.60
2022-08-07T08:17:58.713Z,27.93
2022-08-07T08:20:47.964Z,26.27
2022-08-07T08:23:38.138Z,26.59
2022-08-07T08:26:27.779Z,27.16
2022-08-07T08:28:59.605Z,27.64
2022-08-07T08:32:10.163Z,26.51
2022-08-07T08:34:35.514Z,25.04
2022-08-07T08:37:09.738Z,22.72
2022-08-07T08:39:58.741Z,24.17
2022-08-07T08:42:35.006Z,24.25
2022-08-07T08:45:18.981Z,24.23
2022-08-07T08:48:02.139Z,23.58
2022-08-07T08:50:40.200Z,22.60
2022-08-07T08:53:20.617Z,22.80
2022-08-07T08:55:58.564Z,23.30
2022-08-07T08:58:37.935Z,21.86
2022-08-07T09:01:18.543Z,21.74
2022-08-07T09:04:00.736Z,21.42
2022-08-07T09:06:42.848Z,22.31
2022-08-07T09:09:36.785Z,24.45
2022-08-07T09:12:31.602Z,26.23
2022-08-07T09:16:24.603Z,27.23
2022-08-07T09:18:37.473Z,27.29
2022-08-07T09:21:34.349Z,27.59
2022-08-07T09:24:31.770Z,27.88
2022-08-07T09:27:30.447Z,27.74
2022-08-07T09:30:08.798Z,28.83
2022-08-07T09:33:05.492Z,28.14
2022-08-07T09:36:03.839Z,28.88
2022-08-07T09:38:53.491Z,28.54
2022-08-07T09:41:43.098Z,27.15
2022-08-07T09:44:32.710Z,26.31
2022-08-07T09:47:57.780Z,26.39
2022-08-07T09:50:26.904Z,26.94
2022-08-07T09:53:03.446Z,25.68
2022-08-07T09:56:03.720Z,25.51
2022-08-07T09:58:58.881Z,24.02
2022-08-07T10:01:54.760Z,24.56
2022-08-07T10:04:38.318Z,23.07
2022-08-07T10:07:52.277Z,22.31
2022-08-07T10:11:07.750Z,21.73
2022-08-07T10:14:00.958Z,20.57
2022-08-07T10:16:59.363Z,21.08
2022-08-07T10:19:47.709Z,20.86
2022-08-07T10:22:50.948Z,21.07
2022-08-07T10:25:42.307Z,20.15
2022-08-07T10:28:33.485Z,20.63
2022-08-07T10:31:23.528Z,21.49
2022-08-07T10:34:15.399Z,21.31
2022-08-07T10:37:04.089Z,22.21
2022-08-07T10:39:57.503Z,20.91
2022-08-07T10:42:40.108Z,22.95
2022-08-07T10:45:48.131Z,25.08
2022-08-07T10:48:37.513Z,22.98
2022-08-07T10:51:39.407Z,22.23
2022-08-07T10:54:15.183Z,22.00
2022-08-07T10:57:01.486Z,23.88
2022-08-07T10:59:47.410Z,24.34
2022-08-07T11:02:33.429Z,23.07
2022-08-07T11:05:20.404Z,21.06
2022-08-07T11:08:02.794Z,20.47
2022-08-07T11:10:39.743Z,20.45
2022-08-07T11:14:41.943Z,22.03
2022-08-07T11:16:11.932Z,24.04
2022-08-07T11:18:51.776Z,23.80
2022-08-07T11:21:31.949Z,21.46
2022-08-07T11:24:07.427Z,20.79
2022-08-07T11:26:48.139Z,18.21
2022-08-07T11:29:42.649Z,17.60
2022-08-07T11:32:25.482Z,18.19
2022-08-07T11:34:59.170Z,20.11
2022-08-07T11:37:57.983Z,20.48
2022-08-07T11:40:50.745Z,22.56
2022-08-07T11:43:41.382Z,31.06
2022-08-07T11:46:32.196Z,32.45
2022-08-07T11:49:50.244Z,34.53
2022-08-07T11:52:35.437Z,35.70
2022-08-07T11:55:19.085Z,37.06
2022-08-07T11:58:16.490Z,37.85
2022-08-07T12:01:05.071Z,38.56
2022-08-07T12:04:06.881Z,39.31
2022-08-07T12:06:57.273Z,39.82
2022-08-07T12:09:37.315Z,39.75
2022-08-07T12:12:12.061Z,40.67
2022-08-07T12:14:55.360Z,40.84
2022-08-07T12:17:34.449Z,40.52
2022-08-07T12:20:20.785Z,39.65
2022-08-07T12:23:21.422Z,39.26
2022-08-07T12:26:29.047Z,39.11
2022-08-07T12:29:07.682Z,38.52
2022-08-07T12:32:01.575Z,38.90
2022-08-07T12:34:36.828Z,39.74
2022-08-07T12:37:16.495Z,41.14
2022-08-07T12:40:01.282Z,41.46
2022-08-07T12:42:52.660Z,41.53
2022-08-07T12:45:28.109Z,43.28
2022-08-07T12:48:27.834Z,44.43
2022-08-07T12:51:12.845Z,45.88
2022-08-07T12:54:02.861Z,45.80
2022-08-07T12:56:51.270Z,46.05
2022-08-07T12:59:33.369Z,46.05
2022-08-07T13:02:47.204Z,45.99
2022-08-07T13:06:02.551Z,46.04
2022-08-07T13:08:50.929Z,45.29
2022-08-07T13:12:03.552Z,45.79
2022-08-07T13:14:50.893Z,46.28
2022-08-07T13:17:41.139Z,46.32
2022-08-07T13:20:21.800Z,46.73
2022-08-07T13:24:00.185Z,46.94
2022-08-07T13:26:10.465Z,46.51
2022-08-07T13:28:54.252Z,45.63
2022-08-07T13:31:55.199Z,45.13
2022-08-07T13:34:35.972Z,44.67
2022-08-07T13:37:19.962Z,44.25
2022-08-07T13:40:35.354Z,44.09
2022-08-07T13:42:56.048Z,44.20
2022-08-07T13:46:12.413Z,43.98
2022-08-07T13:48:33.851Z,44.05
2022-08-07T13:51:27.413Z,44.08
2022-08-07T13:54:02.088Z,43.18
2022-08-07T13:56:40.744Z,43.42
2022-08-07T13:59:15.901Z,44.30
2022-08-07T14:02:03.862Z,43.80
2022-08-07T14:04:49.000Z,45.27
2022-08-07T14:07:23.051Z,44.72
2022-08-07T14:10:02.634Z,44.81
2022-08-07T14:12:55.884Z,44.79
2022-08-07T14:15:43.778Z,44.95
2022-08-07T14:18:28.911Z,44.64
2022-08-07T14:21:12.020Z,45.10
2022-08-07T14:24:03.695Z,44.39
2022-08-07T14:26:38.996Z,44.27
2022-08-07T14:30:06.320Z,44.27
2022-08-07T14:32:08.121Z,44.52
2022-08-07T14:34:45.968Z,44.70
2022-08-07T14:37:19.601Z,44.13
2022-08-07T14:40:18.232Z,44.24
2022-08-07T14:45:50.767Z,43.81
2022-08-07T14:48:34.159Z,43.29
2022-08-07T14:54:31.210Z,43.67
2022-08-07T14:56:55.464Z,43.41
2022-08-07T15:00:03.381Z,43.18
2022-08-07T15:02:31.806Z,43.67
2022-08-07T15:05:04.851Z,43.74
2022-08-07T15:07:53.385Z,44.02
2022-08-07T15:10:25.025Z,43.81
2022-08-07T15:12:59.529Z,43.76
2022-08-07T15:15:37.866Z,44.02
2022-08-07T15:18:14.420Z,44.12
2022-08-07T15:21:03.914Z,44.31
2022-08-07T15:25:14.670Z,44.35
2022-08-07T15:26:42.344Z,44.11
2022-08-07T15:30:08.586Z,44.00
2022-08-07T15:32:12.465Z,44.00
2022-08-07T15:34:50.656Z,44.36
2022-08-07T15:38:17.428Z,44.09
2022-08-07T15:46:37.212Z,44.28
2022-08-07T15:49:15.126Z,44.18
2022-08-07T15:54:39.559Z,44.44
2022-08-07T15:57:40.364Z,45.18
2022-08-07T16:00:31.732Z,45.09
2022-08-07T16:03:06.276Z,44.78
2022-08-07T16:05:40.405Z,44.80
2022-08-07T16:08:33.521Z,45.14
2022-08-07T16:11:26.831Z,45.22
2022-08-07T16:14:03.284Z,43.88
2022-08-07T16:16:49.943Z,45.91
2022-08-07T16:19:42.463Z,46.58
2022-08-07T16:22:55.381Z,47.08
2022-08-07T16:25:52.502Z,46.62
2022-08-07T16:30:05.457Z,46.63
2022-08-07T16:31:58.290Z,46.78
2022-08-07T16:34:40.247Z,47.12
2022-08-07T16:38:03.330Z,47.21
2022-08-07T16:41:14.468Z,47.25
2022-08-07T16:44:53.687Z,47.63
2022-08-07T16:47:56.451Z,47.48
2022-08-07T16:50:52.540Z,47.71
2022-08-07T16:54:06.225Z,47.82
2022-08-07T16:57:15.652Z,47.06
2022-08-07T17:00:05.261Z,45.35
2022-08-07T17:02:53.844Z,47.06
2022-08-07T17:06:28.471Z,47.77
2022-08-07T17:09:09.403Z,47.66
2022-08-07T17:12:05.107Z,47.77
2022-08-07T17:14:45.157Z,47.77
2022-08-07T17:17:46.192Z,48.18
2022-08-07T17:20:37.462Z,47.76
2022-08-07T17:23:19.486Z,48.13
2022-08-07T17:26:02.923Z,48.23
2022-08-07T17:28:56.746Z,48.26
2022-08-07T17:31:44.384Z,48.21
2022-08-07T17:35:40.131Z,48.35
2022-08-07T17:38:08.423Z,48.00
2022-08-07T17:40:50.554Z,48.75
2022-08-07T17:44:01.549Z,48.76
2022-08-07T17:46:34.516Z,49.17
2022-08-07T17:49:12.109Z,49.62
2022-08-07T17:52:01.150Z,49.87
2022-08-07T17:54:40.020Z,50.36
2022-08-07T17:57:56.214Z,50.48
2022-08-07T18:00:32.809Z,50.42
2022-08-07T18:03:17.990Z,50.11
2022-08-07T18:06:03.499Z,50.99
2022-08-07T18:09:01.978Z,51.09
2022-08-07T18:12:20.000Z,50.96
2022-08-07T18:14:44.903Z,50.78
2022-08-07T18:18:45.243Z,51.03
2022-08-07T18:21:11.871Z,51.24
2022-08-07T18:23:43.286Z,51.08
2022-08-07T18:26:32.540Z,51.66
2022-08-07T18:30:07.188Z,51.85
2022-08-07T18:32:17.956Z,52.25
2022-08-07T18:35:09.605Z,52.80
2022-08-07T18:38:55.490Z,53.53
2022-08-07T18:41:17.121Z,53.94
2022-08-07T18:44:04.691Z,54.36
2022-08-07T18:46:48.555Z,54.58
2022-08-07T18:50:35.355Z,54.72
2022-08-07T18:52:52.494Z,54.44
2022-08-07T18:55:41.648Z,54.68
2022-08-07T18:58:26.919Z,54.39
2022-08-07T19:02:18.776Z,53.90
2022-08-07T19:04:09.903Z,54.12
2022-08-07T19:06:54.544Z,53.99
2022-08-07T19:09:55.452Z,54.10
2022-08-07T19:12:26.453Z,53.86
2022-08-07T19:16:05.756Z,54.35
2022-08-07T19:18:35.040Z,54.58
2022-08-07T19:21:43.987Z,54.58
2022-08-07T19:24:30.761Z,54.80
2022-08-07T19:28:29.075Z,54.96
2022-08-07T19:31:06.376Z,55.14
2022-08-07T19:32:52.529Z,54.24
2022-08-07T19:35:33.229Z,54.73
2022-08-07T19:38:16.700Z,55.09
2022-08-07T19:40:50.300Z,54.86
2022-08-07T19:43:44.158Z,54.77
2022-08-07T19:46:15.683Z,54.83
2022-08-07T19:48:53.482Z,54.44
2022-08-07T19:51:52.187Z,54.10
2022-08-07T19:54:31.865Z,53.64
2022-08-07T19:58:04.470Z,53.61
2022-08-07T20:00:01.933Z,53.34
2022-08-07T20:02:40.260Z,53.52
2022-08-07T20:05:27.930Z,53.38
2022-08-07T20:08:01.245Z,53.75
2022-08-07T20:10:52.677Z,53.64
2022-08-07T20:13:33.103Z,53.82
2022-08-07T20:16:04.806Z,54.29
2022-08-07T20:18:34.820Z,53.47
2022-08-07T20:21:21.080Z,54.28
2022-08-07T20:23:57.655Z,54.48
2022-08-07T20:26:44.691Z,55.29
2022-08-07T20:29:49.018Z,56.02
2022-08-07T20:32:22.662Z,57.18
2022-08-07T20:35:01.493Z,58.60
2022-08-07T20:37:57.758Z,58.07
2022-08-07T20:40:33.422Z,56.42
2022-08-07T20:43:14.551Z,58.73
2022-08-07T20:46:27.302Z,58.82
2022-08-07T20:48:58.127Z,59.51
2022-08-07T20:51:35.914Z,59.70
2022-08-07T20:54:15.102Z,59.64
2022-08-07T20:56:50.108Z,59.20
2022-08-07T21:00:04.270Z,59.11
2022-08-07T21:02:39.168Z,60.03
2022-08-07T21:05:16.679Z,59.92
2022-08-07T21:07:48.907Z,60.98
2022-08-07T21:10:25.250Z,61.13
2022-08-07T21:13:01.489Z,60.29
2022-08-07T21:15:47.612Z,62.96
2022-08-07T21:18:33.914Z,62.62
2022-08-07T21:21:07.925Z,62.91
2022-08-07T21:23:50.213Z,61.53
2022-08-07T21:26:30.880Z,60.43
2022-08-07T21:29:15.836Z,60.69
2022-08-07T21:32:42.693Z,61.57
2022-08-07T21:34:56.026Z,62.27
2022-08-07T21:37:57.263Z,62.87
2022-08-07T21:40:29.179Z,63.58
2022-08-07T21:43:10.729Z,63.71
2022-08-07T21:46:08.583Z,64.02
2022-08-07T21:48:48.180Z,64.76
2022-08-07T21:51:51.009Z,65.38
2022-08-07T21:54:27.503Z,65.04
2022-08-07T21:57:31.098Z,65.43
2022-08-07T22:00:09.818Z,64.54
2022-08-07T22:02:59.086Z,63.68
2022-08-07T22:05:44.670Z,63.90
2022-08-07T22:08:18.850Z,63.31
2022-08-07T22:10:52.540Z,63.55
2022-08-07T22:13:24.445Z,62.55
2022-08-07T22:16:39.162Z,62.77
2022-08-07T22:19:23.503Z,63.33
2022-08-07T22:22:17.658Z,63.06
2022-08-07T22:25:06.061Z,63.11
2022-08-07T22:28:07.610Z,63.14
2022-08-07T22:30:40.355Z,63.45
2022-08-07T22:33:15.428Z,63.30
2022-08-07T22:35:56.379Z,62.57
2022-08-07T22:38:39.736Z,62.55
2022-08-07T22:41:22.152Z,62.62
2022-08-07T22:44:18.518Z,62.77
2022-08-07T22:47:06.320Z,62.38
2022-08-07T22:49:56.710Z,62.00
2022-08-07T22:52:45.888Z,62.05
2022-08-07T22:55:40.027Z,62.16
2022-08-07T22:58:37.691Z,62.14
2022-08-07T23:01:42.141Z,62.84
2022-08-07T23:04:58.563Z,63.64
2022-08-07T23:07:49.031Z,64.58
2022-08-07T23:10:37.656Z,64.93
2022-08-07T23:13:29.399Z,64.65
2022-08-07T23:16:46.682Z,65.06
2022-08-07T23:19:16.797Z,64.97
2022-08-07T23:21:54.913Z,64.16
2022-08-07T23:24:45.302Z,64.98
2022-08-07T23:27:34.762Z,64.70
2022-08-07T23:30:39.545Z,64.82
2022-08-07T23:34:23.579Z,65.02
2022-08-07T23:36:17.408Z,65.23
2022-08-07T23:39:00.257Z,65.33
2022-08-07T23:42:01.643Z,65.91
2022-08-07T23:44:49.762Z,65.33
2022-08-07T23:47:42.292Z,65.15
2022-08-07T23:50:28.859Z,62.97
2022-08-07T23:53:08.636Z,62.98
2022-08-07T23:55:55.566Z,63.79
2022-08-07T23:58:34.984Z,64.33
